createdAt,value
2018-08-28T00:00:45.508Z,98.14
2018-08-28T00:01:45.535Z,98.05
2018-08-28T00:02:45.563Z,98.52
2018-08-28T00:03:45.592Z,97.95
2018-08-28T00:04:45.623Z,98.24
2018-08-28T00:05:45.647Z,98.43
2018-08-28T00:06:45.680Z,98.52
2018-08-28T00:07:45.707Z,98.43
2018-08-28T00:08:45.785Z,98.81
2018-08-28T00:09:45.763Z,98.91
2018-08-28T00:10:45.794Z,99.29
2018-08-28T00:11:45.822Z,99.10
2018-08-28T00:12:45.851Z,99.19
2018-08-28T00:13:45.879Z,98.91
2018-08-28T00:14:45.909Z,99.19
2018-08-28T00:15:45.935Z,99.19
2018-08-28T00:16:45.966Z,98.91
2018-08-28T00:17:45.994Z,99.01
2018-08-28T00:18:46.019Z,98.91
2018-08-28T00:19:46.049Z,99.29
2018-08-28T00:20:46.080Z,99.01
2018-08-28T00:21:46.107Z,98.81
2018-08-28T00:22:46.132Z,99.01
2018-08-28T00:23:46.167Z,99.29
2018-08-28T00:24:46.195Z,99.19
2018-08-28T00:25:46.245Z,99.29
2018-08-28T00:26:46.248Z,99.58
2018-08-28T00:27:46.278Z,99.58
2018-08-28T00:28:46.307Z,99.58
2018-08-28T00:29:46.335Z,99.48
2018-08-28T00:30:46.367Z,99.39
2018-08-28T00:31:46.392Z,99.39
2018-08-28T00:32:46.424Z,99.19
2018-08-28T00:33:46.449Z,99.77
2018-08-28T00:34:46.479Z,99.58
2018-08-28T00:35:46.504Z,99.19
2018-08-28T00:36:46.539Z,99.99
2018-08-28T00:37:46.570Z,99.58
2018-08-28T00:38:46.591Z,99.87
2018-08-28T00:39:46.624Z,99.99
2018-08-28T00:40:46.651Z,99.99
2018-08-28T00:41:46.680Z,99.96
2018-08-28T00:42:46.706Z,99.58
2018-08-28T00:43:46.737Z,99.99
2018-08-28T00:44:46.767Z,99.87
2018-08-28T00:45:46.796Z,99.99
2018-08-28T00:46:46.826Z,99.99
2018-08-28T00:47:46.850Z,99.99
2018-08-28T00:48:46.879Z,99.91
2018-08-28T00:49:46.907Z,99.99
2018-08-28T00:50:46.941Z,99.68
2018-08-28T00:51:46.969Z,99.91
2018-08-28T00:52:46.993Z,99.63
2018-08-28T00:53:47.021Z,99.91
2018-08-28T00:54:47.056Z,99.73
2018-08-28T00:55:47.082Z,99.99
2018-08-28T00:56:47.112Z,99.99
2018-08-28T00:57:47.139Z,99.99
2018-08-28T00:58:47.228Z,99.99
2018-08-28T00:59:47.197Z,99.99
2018-08-28T01:00:47.224Z,99.99
2018-08-28T01:01:47.251Z,99.99
2018-08-28T01:02:47.282Z,99.99
2018-08-28T01:03:47.313Z,99.99
2018-08-28T01:04:47.338Z,99.99
2018-08-28T01:05:47.365Z,99.99
2018-08-28T01:06:47.396Z,99.99
2018-08-28T01:07:47.426Z,99.99
2018-08-28T01:08:47.452Z,99.99
2018-08-28T01:09:47.481Z,99.99
2018-08-28T01:10:47.514Z,99.99
2018-08-28T01:11:47.541Z,99.99
2018-08-28T01:12:47.569Z,99.99
2018-08-28T01:13:47.595Z,99.99
2018-08-28T01:14:47.711Z,99.99
2018-08-28T01:15:47.654Z,99.99
2018-08-28T01:16:47.683Z,99.99
2018-08-28T01:17:47.712Z,99.99
2018-08-28T01:18:47.738Z,99.99
2018-08-28T01:19:47.766Z,99.99
2018-08-28T01:20:47.796Z,99.99
2018-08-28T01:21:47.826Z,99.99
2018-08-28T01:22:47.852Z,99.99
2018-08-28T01:23:47.887Z,99.99
2018-08-28T01:24:47.912Z,99.99
2018-08-28T01:25:47.938Z,99.99
2018-08-28T01:26:47.969Z,99.99
2018-08-28T01:27:47.998Z,99.99
2018-08-28T01:28:48.027Z,99.99
2018-08-28T01:29:48.055Z,99.99
2018-08-28T01:30:48.080Z,99.99
2018-08-28T01:31:48.110Z,99.99
2018-08-28T01:32:48.141Z,99.99
2018-08-28T01:33:48.165Z,99.99
2018-08-28T01:34:48.197Z,99.99
2018-08-28T01:35:48.226Z,99.99
2018-08-28T01:36:48.253Z,99.99
2018-08-28T01:37:48.283Z,99.99
2018-08-28T01:38:48.310Z,99.99
2018-08-28T01:39:48.342Z,99.99
2018-08-28T01:40:48.365Z,99.99
2018-08-28T01:41:48.399Z,99.99
2018-08-28T01:42:48.426Z,99.99
2018-08-28T01:43:48.454Z,99.99
2018-08-28T01:44:48.482Z,99.99
2018-08-28T01:45:48.515Z,99.99
2018-08-28T01:46:48.539Z,99.99
2018-08-28T01:47:48.567Z,99.99
2018-08-28T01:48:48.598Z,99.99
2018-08-28T01:49:48.627Z,99.99
2018-08-28T01:50:48.653Z,99.99
2018-08-28T01:51:48.684Z,99.99
2018-08-28T01:52:48.712Z,99.99
2018-08-28T01:53:48.742Z,99.99
2018-08-28T01:54:48.767Z,99.99
2018-08-28T01:55:48.799Z,99.99
2018-08-28T01:56:48.826Z,99.99
2018-08-28T01:57:48.855Z,99.99
2018-08-28T01:58:48.886Z,99.99
2018-08-28T01:59:48.910Z,99.99
2018-08-28T02:00:48.939Z,99.99
2018-08-28T02:01:48.967Z,99.99
2018-08-28T02:02:48.998Z,99.99
2018-08-28T02:03:49.025Z,99.99
2018-08-28T02:04:49.057Z,99.99
2018-08-28T02:05:49.079Z,99.99
2018-08-28T02:06:49.110Z,99.99
2018-08-28T02:07:49.139Z,99.99
2018-08-28T02:08:49.169Z,99.99
2018-08-28T02:09:49.198Z,99.99
2018-08-28T02:10:49.227Z,99.99
2018-08-28T02:11:49.255Z,99.99
2018-08-28T02:12:49.284Z,99.99
2018-08-28T02:13:49.313Z,99.99
2018-08-28T02:14:49.346Z,99.99
2018-08-28T02:15:49.368Z,99.99
2018-08-28T02:16:49.398Z,99.99
2018-08-28T02:17:49.431Z,99.99
2018-08-28T02:18:49.454Z,99.99
2018-08-28T02:19:49.484Z,99.99
2018-08-28T02:20:49.511Z,99.99
2018-08-28T02:21:49.541Z,99.99
2018-08-28T02:22:49.570Z,99.99
2018-08-28T02:23:49.598Z,99.99
2018-08-28T02:24:49.628Z,99.99
2018-08-28T02:25:49.655Z,99.99
2018-08-28T02:26:49.685Z,99.99
2018-08-28T02:27:49.717Z,99.99
2018-08-28T02:28:49.743Z,99.99
2018-08-28T02:29:49.769Z,99.99
2018-08-28T02:30:49.797Z,99.99
2018-08-28T02:31:49.829Z,99.99
2018-08-28T02:32:49.859Z,99.99
2018-08-28T02:33:49.884Z,99.99
2018-08-28T02:34:49.917Z,99.99
2018-08-28T02:35:49.944Z,99.99
2018-08-28T02:36:49.972Z,99.99
2018-08-28T02:37:49.998Z,99.99
2018-08-28T02:38:50.029Z,99.99
2018-08-28T02:39:50.056Z,99.99
2018-08-28T02:40:50.085Z,99.99
2018-08-28T02:41:50.116Z,99.99
2018-08-28T02:42:50.141Z,99.99
2018-08-28T02:43:50.171Z,99.99
2018-08-28T02:44:50.202Z,99.99
2018-08-28T02:45:50.227Z,99.99
2018-08-28T02:46:50.255Z,99.99
2018-08-28T02:47:50.287Z,99.99
2018-08-28T02:48:50.317Z,99.99
2018-08-28T02:49:50.343Z,99.99
2018-08-28T02:50:50.371Z,99.99
2018-08-28T02:51:50.401Z,99.99
2018-08-28T02:52:50.432Z,99.99
2018-08-28T02:53:50.456Z,99.99
2018-08-28T02:54:50.486Z,99.99
2018-08-28T02:55:50.514Z,99.99
2018-08-28T02:56:50.543Z,99.99
2018-08-28T02:57:50.574Z,99.99
2018-08-28T02:58:50.599Z,99.99
2018-08-28T02:59:50.629Z,99.99
2018-08-28T03:00:50.660Z,99.99
2018-08-28T03:01:50.685Z,99.99
2018-08-28T03:02:50.718Z,99.99
2018-08-28T03:03:50.746Z,99.99
2018-08-28T03:04:50.773Z,99.99
2018-08-28T03:05:50.802Z,99.99
2018-08-28T03:06:50.828Z,99.99
2018-08-28T03:07:50.859Z,99.99
2018-08-28T03:08:50.887Z,99.99
2018-08-28T03:09:50.918Z,99.99
2018-08-28T03:10:50.946Z,99.99
2018-08-28T03:11:50.971Z,99.99
2018-08-28T03:12:51.002Z,99.99
2018-08-28T03:13:51.031Z,99.99
2018-08-28T03:14:51.059Z,99.99
2018-08-28T03:15:51.138Z,99.99
2018-08-28T03:16:51.115Z,99.99
2018-08-28T03:17:51.143Z,99.99
2018-08-28T03:18:51.172Z,99.99
2018-08-28T03:19:51.205Z,99.99
2018-08-28T03:20:51.231Z,99.99
2018-08-28T03:21:51.261Z,99.99
2018-08-28T03:22:51.286Z,99.99
2018-08-28T03:23:51.313Z,99.99
2018-08-28T03:24:51.344Z,99.99
2018-08-28T03:25:51.374Z,99.99
2018-08-28T03:26:51.401Z,99.99
2018-08-28T03:27:51.432Z,99.99
2018-08-28T03:28:51.496Z,99.99
2018-08-28T03:29:51.486Z,99.99
2018-08-28T03:30:51.519Z,99.99
2018-08-28T03:31:51.543Z,99.99
2018-08-28T03:32:51.574Z,99.99
2018-08-28T03:33:51.603Z,99.99
2018-08-28T03:34:51.634Z,99.99
2018-08-28T03:35:51.660Z,99.99
2018-08-28T03:36:51.688Z,99.99
2018-08-28T03:37:51.719Z,99.99
2018-08-28T03:38:51.744Z,99.99
2018-08-28T03:39:51.776Z,99.99
2018-08-28T03:40:51.805Z,99.99
2018-08-28T03:41:51.832Z,99.99
2018-08-28T03:42:51.864Z,99.99
2018-08-28T03:43:51.889Z,99.99
2018-08-28T03:44:52.004Z,99.99
2018-08-28T03:45:51.949Z,99.99
2018-08-28T03:46:51.988Z,99.99
2018-08-28T03:47:52.004Z,99.99
2018-08-28T03:48:52.036Z,99.99
2018-08-28T03:49:52.064Z,99.99
2018-08-28T03:50:52.090Z,99.99
2018-08-28T03:51:52.122Z,99.99
2018-08-28T03:52:52.150Z,99.99
2018-08-28T03:53:52.195Z,99.99
2018-08-28T03:54:52.206Z,99.99
2018-08-28T03:55:52.235Z,99.99
2018-08-28T03:56:52.266Z,99.99
2018-08-28T03:57:52.295Z,99.99
2018-08-28T03:58:52.322Z,99.99
2018-08-28T03:59:52.353Z,99.99
2018-08-28T04:00:52.381Z,99.99
2018-08-28T04:01:52.408Z,99.99
2018-08-28T04:02:52.441Z,99.99
2018-08-28T04:03:52.465Z,99.99
2018-08-28T04:04:52.500Z,99.99
2018-08-28T04:05:52.522Z,99.99
2018-08-28T04:06:52.551Z,99.99
2018-08-28T04:07:52.580Z,99.99
2018-08-28T04:08:52.610Z,99.99
2018-08-28T04:09:52.641Z,99.99
2018-08-28T04:10:52.667Z,99.99
2018-08-28T04:11:52.695Z,99.99
2018-08-28T04:12:52.726Z,99.99
2018-08-28T04:13:52.753Z,99.99
2018-08-28T04:14:52.782Z,99.99
2018-08-28T04:15:52.815Z,99.99
2018-08-28T04:16:52.880Z,99.99
2018-08-28T04:17:52.868Z,99.99
2018-08-28T04:18:52.901Z,99.99
2018-08-28T04:19:52.931Z,99.99
2018-08-28T04:20:52.957Z,99.99
2018-08-28T04:21:52.987Z,99.99
2018-08-28T04:22:53.012Z,99.99
2018-08-28T04:23:53.044Z,99.99
2018-08-28T04:24:53.074Z,99.99
2018-08-28T04:25:53.104Z,99.99
2018-08-28T04:26:53.128Z,99.99
2018-08-28T04:27:53.156Z,99.99
2018-08-28T04:28:53.188Z,99.99
2018-08-28T04:29:53.215Z,99.99
2018-08-28T04:30:53.302Z,99.99
2018-08-28T04:31:53.274Z,99.99
2018-08-28T04:32:53.302Z,99.99
2018-08-28T04:33:53.329Z,99.99
2018-08-28T04:34:53.357Z,99.99
2018-08-28T04:35:53.388Z,99.99
2018-08-28T04:36:53.414Z,99.99
2018-08-28T04:37:53.442Z,99.99
2018-08-28T04:38:53.473Z,99.99
2018-08-28T04:39:53.504Z,99.99
2018-08-28T04:40:53.530Z,99.99
2018-08-28T04:41:53.602Z,99.99
2018-08-28T04:42:53.588Z,99.99
2018-08-28T04:43:53.615Z,99.99
2018-08-28T04:44:53.648Z,99.99
2018-08-28T04:45:53.680Z,99.99
2018-08-28T04:46:53.705Z,99.99
2018-08-28T04:47:53.730Z,99.99
2018-08-28T04:48:53.791Z,99.99
2018-08-28T04:49:53.787Z,99.99
2018-08-28T04:50:53.819Z,99.99
2018-08-28T04:51:53.847Z,99.99
2018-08-28T04:52:53.875Z,99.99
2018-08-28T04:53:53.906Z,99.99
2018-08-28T04:54:53.945Z,99.99
2018-08-28T04:55:53.963Z,99.99
2018-08-28T04:56:53.996Z,99.99
2018-08-28T04:57:54.020Z,99.99
2018-08-28T04:58:54.049Z,99.99
2018-08-28T04:59:54.074Z,99.99
2018-08-28T05:00:54.107Z,99.99
2018-08-28T05:01:54.137Z,99.99
2018-08-28T05:02:54.166Z,99.99
2018-08-28T05:03:54.194Z,99.99
2018-08-28T05:04:54.221Z,99.99
2018-08-28T05:05:54.249Z,99.99
2018-08-28T05:06:54.282Z,99.99
2018-08-28T05:07:54.306Z,99.99
2018-08-28T05:08:54.340Z,99.99
2018-08-28T05:09:54.368Z,99.99
2018-08-28T05:10:54.397Z,99.99
2018-08-28T05:11:54.513Z,99.99
2018-08-28T05:12:54.455Z,99.99
2018-08-28T05:13:54.484Z,99.99
2018-08-28T05:14:54.510Z,99.99
2018-08-28T05:15:54.581Z,99.99
2018-08-28T05:16:54.566Z,99.99
2018-08-28T05:17:54.593Z,99.99
2018-08-28T05:18:54.622Z,99.99
2018-08-28T05:19:54.652Z,99.99
2018-08-28T05:20:54.680Z,99.99
2018-08-28T05:21:54.709Z,99.99
2018-08-28T05:22:54.740Z,99.99
2018-08-28T05:23:54.767Z,99.99
2018-08-28T05:24:54.800Z,99.99
2018-08-28T05:25:54.828Z,99.99
2018-08-28T05:26:54.855Z,99.99
2018-08-28T05:27:54.882Z,99.99
2018-08-28T05:28:54.913Z,99.99
2018-08-28T05:29:54.943Z,99.99
2018-08-28T05:30:54.968Z,99.99
2018-08-28T05:31:55.001Z,99.99
2018-08-28T05:32:55.028Z,99.99
2018-08-28T05:33:55.056Z,99.99
2018-08-28T05:34:55.086Z,99.99
2018-08-28T05:35:55.115Z,99.99
2018-08-28T05:36:55.143Z,99.99
2018-08-28T05:37:55.202Z,99.99
2018-08-28T05:38:55.202Z,99.99
2018-08-28T05:39:55.229Z,99.99
2018-08-28T05:40:55.260Z,99.99
2018-08-28T05:41:55.290Z,99.99
2018-08-28T05:42:55.316Z,99.99
2018-08-28T05:43:55.346Z,99.99
2018-08-28T05:44:55.373Z,99.99
2018-08-28T05:45:55.403Z,99.99
2018-08-28T05:46:55.433Z,99.99
2018-08-28T05:47:55.461Z,99.99
2018-08-28T05:48:55.492Z,99.99
2018-08-28T05:49:55.517Z,99.99
2018-08-28T05:50:55.543Z,99.99
2018-08-28T05:51:55.577Z,99.99
2018-08-28T05:52:55.606Z,99.99
2018-08-28T05:53:55.633Z,99.99
2018-08-28T05:54:55.665Z,99.99
2018-08-28T05:55:55.842Z,99.99
2018-08-28T05:56:55.719Z,99.99
2018-08-28T05:57:55.747Z,99.99
2018-08-28T05:58:55.778Z,99.99
2018-08-28T05:59:55.810Z,99.99
2018-08-28T06:00:55.836Z,99.99
2018-08-28T06:01:55.860Z,99.99
2018-08-28T06:02:55.954Z,99.99
2018-08-28T06:03:55.918Z,99.99
2018-08-28T06:04:55.949Z,99.99
2018-08-28T06:05:55.981Z,99.99
2018-08-28T06:06:56.009Z,99.99
2018-08-28T06:07:56.034Z,99.99
2018-08-28T06:08:56.121Z,99.99
2018-08-28T06:09:56.094Z,99.99
2018-08-28T06:10:56.122Z,99.99
2018-08-28T06:11:56.154Z,99.99
2018-08-28T06:12:56.181Z,99.99
2018-08-28T06:13:56.209Z,99.99
2018-08-28T06:14:56.241Z,99.99
2018-08-28T06:15:56.266Z,99.99
2018-08-28T06:16:56.295Z,99.99
2018-08-28T06:17:56.325Z,99.99
2018-08-28T06:18:56.352Z,99.99
2018-08-28T06:19:56.386Z,99.99
2018-08-28T06:20:56.410Z,99.99
2018-08-28T06:21:56.439Z,99.99
2018-08-28T06:22:56.491Z,99.99
2018-08-28T06:23:56.499Z,99.99
2018-08-28T06:24:56.528Z,99.99
2018-08-28T06:25:56.557Z,99.99
2018-08-28T06:26:56.585Z,99.99
2018-08-28T06:27:56.615Z,99.99
2018-08-28T06:28:56.641Z,99.99
2018-08-28T06:29:56.672Z,99.99
2018-08-28T06:30:56.699Z,99.99
2018-08-28T06:31:56.730Z,99.99
2018-08-28T06:32:56.761Z,99.99
2018-08-28T06:33:56.791Z,99.99
2018-08-28T06:34:56.817Z,99.99
2018-08-28T06:35:56.847Z,99.99
2018-08-28T06:36:56.877Z,99.99
2018-08-28T06:37:56.907Z,99.99
2018-08-28T06:38:56.934Z,99.99
2018-08-28T06:39:56.960Z,99.99
2018-08-28T06:40:56.993Z,99.99
2018-08-28T06:41:57.018Z,99.99
2018-08-28T06:42:57.049Z,99.99
2018-08-28T06:43:57.130Z,99.99
2018-08-28T06:44:57.104Z,99.99
2018-08-28T06:45:57.135Z,99.99
2018-08-28T06:46:57.165Z,99.99
2018-08-28T06:47:57.192Z,99.99
2018-08-28T06:48:57.224Z,99.99
2018-08-28T06:49:57.253Z,99.99
2018-08-28T06:50:57.278Z,99.99
2018-08-28T06:51:57.311Z,99.99
2018-08-28T06:52:57.340Z,99.99
2018-08-28T06:53:57.365Z,99.99
2018-08-28T06:54:57.397Z,99.99
2018-08-28T06:55:57.423Z,99.99
2018-08-28T06:56:57.520Z,99.99
2018-08-28T06:57:57.482Z,99.99
2018-08-28T06:58:57.510Z,99.99
2018-08-28T06:59:57.545Z,99.99
2018-08-28T07:00:57.573Z,99.99
2018-08-28T07:01:57.597Z,99.99
2018-08-28T07:02:57.632Z,99.99
2018-08-28T07:03:57.719Z,99.99
2018-08-28T07:04:57.689Z,99.99
2018-08-28T07:05:57.721Z,99.99
2018-08-28T07:06:57.745Z,99.99
2018-08-28T07:07:57.799Z,99.99
2018-08-28T07:08:57.807Z,99.99
2018-08-28T07:09:57.832Z,99.99
2018-08-28T07:10:57.859Z,99.99
2018-08-28T07:11:57.890Z,99.99
2018-08-28T07:12:57.922Z,99.99
2018-08-28T07:13:57.950Z,99.99
2018-08-28T07:14:57.975Z,99.99
2018-08-28T07:15:58.007Z,99.99
2018-08-28T07:16:58.039Z,99.99
2018-08-28T07:17:58.064Z,99.99
2018-08-28T07:18:58.093Z,99.99
2018-08-28T07:19:58.122Z,99.99
2018-08-28T07:20:58.154Z,99.99
2018-08-28T07:21:58.181Z,99.99
2018-08-28T07:22:58.213Z,99.99
2018-08-28T07:23:58.239Z,99.99
2018-08-28T07:24:58.269Z,99.99
2018-08-28T07:25:58.311Z,99.99
2018-08-28T07:26:58.330Z,99.99
2018-08-28T07:27:58.358Z,99.99
2018-08-28T07:28:58.390Z,99.99
2018-08-28T07:29:58.418Z,99.99
2018-08-28T07:30:58.448Z,99.99
2018-08-28T07:31:58.478Z,99.99
2018-08-28T07:32:58.504Z,99.99
2018-08-28T07:33:58.536Z,99.99
2018-08-28T07:34:58.564Z,99.99
2018-08-28T07:35:58.596Z,99.99
2018-08-28T07:36:58.621Z,99.99
2018-08-28T07:37:58.650Z,99.99
2018-08-28T07:38:58.680Z,99.99
2018-08-28T07:39:58.712Z,99.99
2018-08-28T07:40:58.743Z,99.99
2018-08-28T07:41:58.771Z,99.99
2018-08-28T07:42:58.888Z,99.99
2018-08-28T07:43:58.831Z,99.99
2018-08-28T07:44:58.860Z,99.99
2018-08-28T07:45:58.887Z,99.99
2018-08-28T07:46:58.916Z,99.99
2018-08-28T07:47:58.947Z,99.99
2018-08-28T07:48:58.981Z,99.99
2018-08-28T07:49:59.003Z,99.99
2018-08-28T07:50:59.033Z,99.99
2018-08-28T07:51:59.065Z,99.99
2018-08-28T07:52:59.094Z,99.99
2018-08-28T07:53:59.173Z,99.99
2018-08-28T07:54:59.154Z,99.99
2018-08-28T07:55:59.183Z,99.99
2018-08-28T07:56:59.213Z,99.99
2018-08-28T07:57:59.242Z,99.99
2018-08-28T07:58:59.271Z,99.99
2018-08-28T07:59:59.301Z,99.99
2018-08-28T08:00:59.337Z,99.99
2018-08-28T08:01:59.362Z,99.99
2018-08-28T08:02:59.391Z,99.99
2018-08-28T08:03:59.424Z,99.99
2018-08-28T08:04:59.451Z,99.88
2018-08-28T08:05:59.480Z,98.72
2018-08-28T08:06:59.507Z,98.91
2018-08-28T08:07:59.540Z,98.44
2018-08-28T08:08:59.569Z,97.76
2018-08-28T08:09:59.599Z,98.82
2018-08-28T08:10:59.629Z,98.72
2018-08-28T08:11:59.659Z,97.67
2018-08-28T08:12:59.690Z,97.81
2018-08-28T08:13:59.715Z,96.85
2018-08-28T08:14:59.748Z,95.31
2018-08-28T08:15:59.797Z,95.17
2018-08-28T08:16:59.805Z,94.92
2018-08-28T08:17:59.840Z,95.70
2018-08-28T08:18:59.867Z,96.85
2018-08-28T08:19:59.904Z,96.47
2018-08-28T08:20:59.928Z,95.79
2018-08-28T08:21:59.976Z,96.37
2018-08-28T08:22:59.990Z,95.70
2018-08-28T08:24:00.018Z,95.79
2018-08-28T08:25:00.052Z,95.60
2018-08-28T08:26:00.078Z,95.60
2018-08-28T08:27:00.108Z,95.17
2018-08-28T08:28:00.189Z,94.20
2018-08-28T08:29:00.168Z,94.49
2018-08-28T08:30:00.199Z,93.91
2018-08-28T08:31:00.230Z,93.43
2018-08-28T08:32:00.259Z,92.76
2018-08-28T08:33:00.291Z,92.22
2018-08-28T08:34:00.322Z,91.55
2018-08-28T08:35:00.352Z,91.94
2018-08-28T08:36:00.434Z,91.17
2018-08-28T08:37:00.412Z,90.69
2018-08-28T08:38:00.444Z,90.78
2018-08-28T08:39:00.475Z,90.50
2018-08-28T08:40:00.505Z,90.78
2018-08-28T08:41:00.539Z,89.86
2018-08-28T08:42:00.573Z,89.09
2018-08-28T08:43:00.597Z,89.00
2018-08-28T08:44:00.693Z,89.29
2018-08-28T08:45:00.689Z,89.09
2018-08-28T08:46:00.692Z,88.04
2018-08-28T08:47:00.773Z,87.50
2018-08-28T08:48:00.757Z,86.63
2018-08-28T08:49:00.786Z,85.42
2018-08-28T08:50:00.815Z,84.01
2018-08-28T08:51:00.849Z,84.17
2018-08-28T08:52:00.880Z,84.21
2018-08-28T08:53:00.914Z,83.98
2018-08-28T08:54:00.941Z,84.46
2018-08-28T08:55:01.130Z,85.57
2018-08-28T08:56:01.004Z,86.39
2018-08-28T08:57:01.037Z,85.57
2018-08-28T08:58:01.072Z,86.25
2018-08-28T08:59:01.197Z,86.44
2018-08-28T09:00:01.134Z,86.54
2018-08-28T09:01:01.215Z,86.44
2018-08-28T09:02:01.195Z,86.05
2018-08-28T09:03:01.227Z,85.57
2018-08-28T09:04:01.260Z,85.57
2018-08-28T09:05:01.294Z,85.42
2018-08-28T09:06:01.383Z,86.00
2018-08-28T09:07:01.356Z,85.52
2018-08-28T09:08:01.393Z,84.41
2018-08-28T09:09:01.421Z,84.36
2018-08-28T09:10:01.453Z,84.84
2018-08-28T09:11:01.486Z,84.84
2018-08-28T09:12:01.559Z,84.17
2018-08-28T09:13:01.551Z,83.88
2018-08-28T09:14:01.587Z,83.88
2018-08-28T09:15:01.614Z,84.75
2018-08-28T09:16:01.645Z,84.17
2018-08-28T09:17:01.681Z,84.55
2018-08-28T09:18:01.713Z,85.61
2018-08-28T09:19:01.741Z,85.86
2018-08-28T09:20:01.784Z,85.47
2018-08-28T09:21:01.816Z,85.38
2018-08-28T09:22:01.838Z,85.52
2018-08-28T09:23:01.875Z,84.75
2018-08-28T09:24:01.957Z,84.65
2018-08-28T09:25:01.938Z,85.42
2018-08-28T09:26:01.969Z,84.46
2018-08-28T09:27:02.001Z,83.88
2018-08-28T09:28:02.036Z,84.36
2018-08-28T09:29:02.070Z,84.17
2018-08-28T09:30:02.097Z,84.46
2018-08-28T09:31:02.133Z,84.65
2018-08-28T09:32:02.164Z,84.65
2018-08-28T09:33:02.194Z,85.57
2018-08-28T09:34:02.229Z,85.19
2018-08-28T09:35:02.262Z,85.86
2018-08-28T09:36:02.291Z,85.52
2018-08-28T09:37:02.321Z,84.94
2018-08-28T09:38:02.355Z,84.42
2018-08-28T09:39:02.387Z,84.70
2018-08-28T09:40:02.420Z,85.67
2018-08-28T09:41:02.449Z,85.23
2018-08-28T09:42:02.481Z,85.23
2018-08-28T09:43:02.514Z,84.52
2018-08-28T09:44:02.558Z,84.80
2018-08-28T09:45:02.578Z,85.57
2018-08-28T09:46:02.611Z,86.44
2018-08-28T09:47:02.641Z,86.35
2018-08-28T09:48:02.745Z,86.44
2018-08-28T09:49:02.706Z,85.96
2018-08-28T09:50:02.737Z,85.09
2018-08-28T09:51:02.853Z,85.38
2018-08-28T09:52:02.800Z,85.52
2018-08-28T09:53:02.835Z,84.84
2018-08-28T09:54:02.864Z,84.94
2018-08-28T09:55:02.953Z,84.75
2018-08-28T09:56:02.930Z,84.75
2018-08-28T09:57:02.959Z,85.47
2018-08-28T09:58:02.992Z,85.19
2018-08-28T09:59:03.024Z,85.77
2018-08-28T10:00:03.057Z,85.67
2018-08-28T10:01:03.087Z,86.35
2018-08-28T10:02:03.122Z,85.81
2018-08-28T10:03:03.151Z,84.80
2018-08-28T10:04:03.183Z,84.12
2018-08-28T10:05:03.215Z,84.61
2018-08-28T10:06:03.245Z,85.57
2018-08-28T10:07:03.280Z,84.66
2018-08-28T10:08:03.313Z,85.43
2018-08-28T10:09:03.345Z,85.82
2018-08-28T10:10:03.372Z,86.11
2018-08-28T10:11:03.574Z,85.43
2018-08-28T10:12:03.435Z,84.56
2018-08-28T10:13:03.468Z,83.22
2018-08-28T10:14:03.500Z,83.36
2018-08-28T10:15:03.531Z,81.62
2018-08-28T10:16:03.562Z,81.24
2018-08-28T10:17:03.589Z,81.72
2018-08-28T10:18:03.620Z,82.10
2018-08-28T10:19:03.654Z,82.10
2018-08-28T10:20:03.688Z,82.10
2018-08-28T10:21:03.719Z,82.78
2018-08-28T10:22:03.748Z,83.07
2018-08-28T10:23:03.776Z,83.74
2018-08-28T10:24:03.812Z,83.45
2018-08-28T10:25:03.848Z,84.03
2018-08-28T10:26:03.872Z,83.55
2018-08-28T10:27:03.902Z,83.74
2018-08-28T10:28:03.932Z,82.78
2018-08-28T10:29:03.966Z,82.68
2018-08-28T10:30:03.997Z,82.29
2018-08-28T10:31:04.028Z,82.20
2018-08-28T10:32:04.061Z,82.68
2018-08-28T10:33:04.090Z,83.16
2018-08-28T10:34:04.123Z,83.26
2018-08-28T10:35:04.149Z,82.39
2018-08-28T10:36:04.182Z,83.16
2018-08-28T10:37:04.215Z,82.78
2018-08-28T10:38:04.296Z,83.12
2018-08-28T10:39:04.279Z,83.51
2018-08-28T10:40:04.305Z,83.70
2018-08-28T10:41:04.337Z,83.85
2018-08-28T10:42:04.369Z,84.38
2018-08-28T10:43:04.398Z,84.28
2018-08-28T10:44:04.431Z,84.43
2018-08-28T10:45:04.466Z,84.56
2018-08-28T10:46:04.569Z,84.56
2018-08-28T10:47:04.521Z,84.28
2018-08-28T10:48:04.556Z,84.28
2018-08-28T10:49:04.590Z,84.47
2018-08-28T10:50:04.617Z,84.22
2018-08-28T10:51:04.644Z,82.54
2018-08-28T10:52:04.681Z,83.70
2018-08-28T10:53:04.712Z,83.31
2018-08-28T10:54:04.739Z,83.80
2018-08-28T10:55:04.770Z,82.45
2018-08-28T10:56:04.799Z,80.85
2018-08-28T10:57:04.829Z,80.62
2018-08-28T10:58:04.861Z,80.71
2018-08-28T10:59:04.892Z,81.48
2018-08-28T11:00:04.923Z,81.77
2018-08-28T11:01:04.957Z,81.77
2018-08-28T11:02:04.986Z,81.48
2018-08-28T11:03:05.013Z,81.62
2018-08-28T11:04:05.047Z,81.14
2018-08-28T11:05:05.077Z,81.43
2018-08-28T11:06:05.111Z,80.85
2018-08-28T11:07:05.138Z,80.76
2018-08-28T11:08:05.170Z,81.04
2018-08-28T11:09:05.199Z,80.37
2018-08-28T11:10:05.229Z,80.56
2018-08-28T11:11:05.261Z,80.41
2018-08-28T11:12:05.295Z,79.21
2018-08-28T11:13:05.323Z,79.21
2018-08-28T11:14:05.357Z,79.41
2018-08-28T11:15:05.386Z,78.96
2018-08-28T11:16:05.439Z,78.38
2018-08-28T11:17:05.447Z,78.29
2018-08-28T11:18:05.480Z,78.03
2018-08-28T11:19:05.511Z,77.46
2018-08-28T11:20:05.543Z,76.53
2018-08-28T11:21:05.571Z,75.76
2018-08-28T11:22:05.607Z,75.27
2018-08-28T11:23:05.638Z,74.99
2018-08-28T11:24:05.665Z,74.31
2018-08-28T11:25:05.695Z,73.48
2018-08-28T11:26:05.727Z,72.22
2018-08-28T11:27:05.761Z,72.22
2018-08-28T11:28:05.790Z,71.64
2018-08-28T11:29:05.822Z,71.88
2018-08-28T11:30:05.856Z,71.10
2018-08-28T11:31:05.881Z,70.23
2018-08-28T11:32:05.916Z,70.81
2018-08-28T11:33:05.948Z,69.84
2018-08-28T11:34:05.981Z,67.94
2018-08-28T11:35:06.013Z,67.69
2018-08-28T11:36:06.044Z,66.82
2018-08-28T11:37:06.077Z,67.21
2018-08-28T11:38:06.107Z,67.66
2018-08-28T11:39:06.144Z,66.30
2018-08-28T11:40:06.176Z,65.47
2018-08-28T11:41:06.205Z,63.69
2018-08-28T11:42:06.241Z,60.00
2018-08-28T11:43:06.273Z,58.44
2018-08-28T11:44:06.304Z,60.35
2018-08-28T11:45:06.342Z,58.61
2018-08-28T11:46:06.373Z,54.90
2018-08-28T11:47:06.463Z,53.99
2018-08-28T11:48:06.439Z,51.90
2018-08-28T11:49:06.478Z,51.12
2018-08-28T11:50:06.507Z,51.34
2018-08-28T11:51:06.541Z,50.46
2018-08-28T11:52:06.579Z,49.29
2018-08-28T11:53:06.616Z,49.12
2018-08-28T11:54:06.649Z,48.54
2018-08-28T11:55:06.687Z,49.46
2018-08-28T11:56:06.719Z,49.85
2018-08-28T11:57:06.760Z,48.41
2018-08-28T11:58:06.794Z,48.12
2018-08-28T11:59:06.827Z,47.66
2018-08-28T12:00:06.866Z,46.34
2018-08-28T12:01:06.905Z,46.08
2018-08-28T12:02:07.062Z,46.15
2018-08-28T12:03:06.974Z,47.90
2018-08-28T12:04:07.018Z,49.46
2018-08-28T12:05:07.226Z,49.41
2018-08-28T12:06:07.092Z,50.09
2018-08-28T12:07:07.136Z,51.17
2018-08-28T12:08:07.164Z,50.87
2018-08-28T12:09:07.202Z,50.31
2018-08-28T12:10:07.243Z,49.54
2018-08-28T12:11:07.280Z,49.34
2018-08-28T12:12:07.316Z,49.24
2018-08-28T12:13:07.382Z,51.11
2018-08-28T12:14:07.396Z,52.35
2018-08-28T12:15:07.433Z,51.89
2018-08-28T12:16:07.472Z,51.23
2018-08-28T12:17:07.512Z,52.30
2018-08-28T12:18:07.550Z,53.83
2018-08-28T12:19:07.588Z,54.06
2018-08-28T12:20:07.628Z,54.71
2018-08-28T12:21:07.748Z,55.88
2018-08-28T12:22:07.704Z,55.76
2018-08-28T12:23:07.740Z,56.52
2018-08-28T12:24:07.779Z,55.56
2018-08-28T12:25:07.815Z,56.72
2018-08-28T12:26:07.854Z,54.88
2018-08-28T12:27:07.892Z,55.07
2018-08-28T12:28:07.981Z,55.24
2018-08-28T12:29:07.968Z,55.07
2018-08-28T12:32:08.077Z,54.43
2018-08-28T12:33:08.110Z,54.81
2018-08-28T12:34:08.149Z,55.56
2018-08-28T12:35:08.184Z,55.98
2018-08-28T12:36:08.224Z,55.78
2018-08-28T12:37:08.267Z,56.43
2018-08-28T12:38:08.297Z,56.34
2018-08-28T12:39:52.299Z,56.36
2018-08-28T12:40:50.919Z,56.46
2018-08-28T12:41:50.957Z,56.46
2018-08-28T12:42:50.993Z,57.23
2018-08-28T12:43:51.103Z,57.43
2018-08-28T12:44:51.079Z,57.30
2018-08-28T12:45:51.101Z,57.59
2018-08-28T12:46:51.133Z,58.44
2018-08-28T12:47:51.172Z,58.14
2018-08-28T12:48:51.204Z,58.63
2018-08-28T12:49:51.357Z,58.01
2018-08-28T12:50:51.274Z,57.36
2018-08-28T12:51:51.312Z,54.96
2018-08-28T12:52:51.347Z,55.44
2018-08-28T12:53:51.381Z,55.35
2018-08-28T12:54:51.461Z,55.83
2018-08-28T12:55:51.452Z,56.03